Time;durP1;ratioP1;P1;durP2;ratioP2;P2;SDS_P1;SDS_P2;PMS_P1;PMS_P2;Temp;Humidity;BMP_temperature;BMP_pressure;BME280_temperature;BME280_humidity;BME280_pressure;Samples;Min_cycle;Max_cycle;Signal;HPM_P1;HPM_P2
2023/10/30 00:04:12;;;;;;;1.80;1.08;;;15.40;99.90;;;;;;9976328;28;20117;-77
2023/10/30 00:09:04;;;;;;;2.05;0.60;;;15.40;99.90;;;;;;9953957;28;20038;-77
2023/10/30 00:13:55;;;;;;;0.55;0.50;;;15.40;99.90;;;;;;9969397;28;20018;-77
2023/10/30 00:18:46;;;;;;;1.55;0.93;;;15.30;99.90;;;;;;9974929;28;20030;-76
2023/10/30 00:23:37;;;;;;;1.25;0.65;;;15.30;99.90;;;;;;9950988;28;20134;-77
2023/10/30 00:28:29;;;;;;;1.17;0.50;;;15.20;99.90;;;;;;9952184;28;20042;-76
2023/10/30 00:33:20;;;;;;;1.17;0.63;;;15.30;99.90;;;;;;9957371;28;20505;-76
2023/10/30 00:38:11;;;;;;;2.45;0.55;;;15.20;99.90;;;;;;9971611;28;20037;-77
2023/10/30 00:43:01;;;;;;;1.45;0.38;;;15.20;99.90;;;;;;9967321;28;20031;-76
2023/10/30 00:47:52;;;;;;;0.22;0.20;;;15.20;99.90;;;;;;9963505;28;20040;-75
2023/10/30 00:52:42;;;;;;;0.70;0.17;;;15.20;99.90;;;;;;9958135;28;20080;-75
2023/10/30 00:57:33;;;;;;;0.68;0.65;;;15.20;99.90;;;;;;9962580;28;20101;-76
2023/10/30 01:02:24;;;;;;;0.77;0.30;;;15.20;99.90;;;;;;9971543;28;20077;-76
2023/10/30 01:07:14;;;;;;;0.45;0.25;;;15.20;99.90;;;;;;9970113;28;20038;-76
2023/10/30 01:12:05;;;;;;;0.88;0.30;;;15.20;99.90;;;;;;9972843;28;20373;-76
2023/10/30 01:16:56;;;;;;;1.98;0.40;;;15.20;99.90;;;;;;9977346;28;20027;-76
2023/10/30 01:21:47;;;;;;;1.00;0.30;;;15.20;99.90;;;;;;9955987;28;20027;-76
2023/10/30 01:26:39;;;;;;;0.75;0.20;;;15.20;99.90;;;;;;9945047;28;20046;-76
2023/10/30 01:31:29;;;;;;;0.55;0.25;;;15.20;99.90;;;;;;9959069;28;20054;-76
2023/10/30 01:36:20;;;;;;;0.57;0.35;;;15.20;99.90;;;;;;9972973;28;20038;-76
2023/10/30 01:41:11;;;;;;;0.50;0.30;;;15.20;99.90;;;;;;9968355;28;20042;-76
2023/10/30 01:46:01;;;;;;;0.70;0.30;;;15.10;99.90;;;;;;9967608;28;20117;-76
2023/10/30 01:50:53;;;;;;;0.30;0.30;;;15.10;99.90;;;;;;9963347;28;20126;-76
2023/10/30 01:55:45;;;;;;;0.20;0.20;;;15.10;99.90;;;;;;9954478;28;20038;-76
2023/10/30 02:00:35;;;;;;;0.30;0.30;;;15.10;99.90;;;;;;9956265;28;20034;-76
2023/10/30 02:05:26;;;;;;;0.30;0.25;;;15.00;99.90;;;;;;9968829;28;20149;-76
2023/10/30 02:10:17;;;;;;;1.88;0.40;;;15.00;99.90;;;;;;9963374;28;20026;-76
2023/10/30 02:15:08;;;;;;;0.85;0.30;;;15.00;99.90;;;;;;9978876;28;20042;-76
2023/10/30 02:20:00;;;;;;;0.55;0.25;;;14.90;99.90;;;;;;9973841;28;20034;-76
2023/10/30 02:24:50;;;;;;;0.40;0.30;;;14.90;99.90;;;;;;9980925;28;20604;-76
2023/10/30 02:29:41;;;;;;;0.82;0.32;;;14.80;99.90;;;;;;9978857;28;20031;-76
2023/10/30 02:34:32;;;;;;;1.52;0.30;;;14.80;99.90;;;;;;9956373;28;20058;-75
2023/10/30 02:39:23;;;;;;;0.95;0.38;;;14.80;99.90;;;;;;9967012;28;20320;-75
2023/10/30 02:44:13;;;;;;;0.70;0.50;;;14.80;99.90;;;;;;9969358;28;20272;-77
2023/10/30 02:49:04;;;;;;;1.40;0.40;;;14.70;99.90;;;;;;9960462;28;20425;-77
2023/10/30 02:53:55;;;;;;;2.25;1.10;;;14.70;99.90;;;;;;9963048;28;20401;-76
2023/10/30 02:58:45;;;;;;;0.93;0.30;;;14.70;99.90;;;;;;9952186;28;20074;-76
2023/10/30 03:03:36;;;;;;;0.75;0.40;;;14.70;99.90;;;;;;9965546;28;20046;-76
2023/10/30 03:08:26;;;;;;;2.13;0.45;;;14.70;99.90;;;;;;9956781;28;20042;-77
2023/10/30 03:13:17;;;;;;;1.40;0.40;;;14.70;99.90;;;;;;9962482;28;20121;-76
2023/10/30 03:18:08;;;;;;;1.27;0.30;;;14.70;99.90;;;;;;9969041;28;20062;-78
2023/10/30 03:23:00;;;;;;;0.47;0.22;;;14.70;99.90;;;;;;9961658;28;20063;-77
2023/10/30 03:27:50;;;;;;;0.68;0.20;;;14.70;99.90;;;;;;9961761;28;20022;-77
2023/10/30 03:32:41;;;;;;;1.35;0.43;;;14.70;99.90;;;;;;9959609;28;20057;-76
2023/10/30 03:37:31;;;;;;;1.52;0.28;;;14.70;99.90;;;;;;9960006;28;20038;-76
2023/10/30 03:42:22;;;;;;;0.70;0.70;;;14.70;99.90;;;;;;9966026;28;20042;-77
2023/10/30 03:47:13;;;;;;;1.00;0.40;;;14.70;99.90;;;;;;9967552;28;20420;-77
2023/10/30 03:52:04;;;;;;;4.20;0.40;;;14.70;99.90;;;;;;9976552;28;20069;-76
2023/10/30 03:56:54;;;;;;;1.25;0.28;;;14.60;99.90;;;;;;9967229;28;20038;-77
2023/10/30 04:01:45;;;;;;;2.80;1.63;;;14.60;99.90;;;;;;9960843;28;20022;-76
2023/10/30 04:06:36;;;;;;;0.75;0.30;;;14.60;99.90;;;;;;9947959;28;20270;-77
2023/10/30 04:11:26;;;;;;;0.28;0.22;;;14.70;99.90;;;;;;9955695;28;20109;-77
2023/10/30 04:16:17;;;;;;;0.32;0.30;;;14.70;99.90;;;;;;9970765;28;20093;-76
2023/10/30 04:21:08;;;;;;;0.40;0.20;;;14.70;99.90;;;;;;9960163;28;20485;-76
2023/10/30 04:25:59;;;;;;;0.32;0.28;;;14.70;99.90;;;;;;9949778;28;20045;-77
2023/10/30 04:30:49;;;;;;;0.40;0.30;;;14.60;99.90;;;;;;9952700;28;20077;-76
2023/10/30 04:35:40;;;;;;;2.05;0.40;;;14.60;99.90;;;;;;9966142;28;20034;-76
2023/10/30 04:40:31;;;;;;;0.25;0.25;;;14.70;99.90;;;;;;9968499;28;20080;-76
2023/10/30 04:45:22;;;;;;;0.65;0.45;;;14.70;99.90;;;;;;9964534;28;20042;-77
2023/10/30 04:50:13;;;;;;;1.27;0.40;;;14.70;99.90;;;;;;9954241;28;20066;-77
2023/10/30 04:55:04;;;;;;;1.58;0.50;;;14.80;99.90;;;;;;9966928;28;20034;-77
2023/10/30 04:59:54;;;;;;;1.17;0.65;;;14.70;99.90;;;;;;9960223;28;20376;-77
2023/10/30 05:04:45;;;;;;;2.88;0.50;;;14.70;99.90;;;;;;9962172;28;20045;-78
2023/10/30 05:09:36;;;;;;;0.35;0.30;;;14.70;99.90;;;;;;9957857;28;20576;-75
2023/10/30 05:14:27;;;;;;;0.45;0.40;;;14.60;99.90;;;;;;9962542;28;20042;-77
2023/10/30 05:19:17;;;;;;;1.02;0.50;;;14.60;99.90;;;;;;9965296;28;20031;-77
2023/10/30 05:24:08;;;;;;;0.80;0.50;;;14.60;99.90;;;;;;9942697;28;20050;-77
2023/10/30 05:28:59;;;;;;;3.38;0.80;;;14.80;99.90;;;;;;9953986;28;20459;-77
2023/10/30 05:33:50;;;;;;;1.23;0.60;;;14.80;99.90;;;;;;9964653;28;20038;-77
2023/10/30 05:38:40;;;;;;;1.85;0.90;;;14.70;99.90;;;;;;9974531;28;20030;-76
2023/10/30 05:43:32;;;;;;;1.10;0.73;;;14.70;99.90;;;;;;9979005;28;20129;-77
2023/10/30 05:48:23;;;;;;;1.75;0.80;;;14.60;99.90;;;;;;9975670;28;20034;-76
2023/10/30 05:53:14;;;;;;;0.90;0.60;;;14.60;99.90;;;;;;9972010;28;20096;-77
2023/10/30 05:58:04;;;;;;;1.35;0.68;;;14.70;99.90;;;;;;9974146;28;20420;-77
2023/10/30 06:02:55;;;;;;;6.45;2.97;;;14.60;99.90;;;;;;9971837;28;20049;-77
2023/10/30 06:07:46;;;;;;;5.85;1.80;;;14.60;99.90;;;;;;9966351;28;20046;-77
2023/10/30 06:12:38;;;;;;;2.40;1.23;;;14.60;99.90;;;;;;9982070;28;20052;-77
2023/10/30 06:17:28;;;;;;;1.95;1.00;;;14.50;99.90;;;;;;9984137;28;20406;-77
2023/10/30 06:22:21;;;;;;;1.30;0.90;;;14.50;99.90;;;;;;9964501;28;20101;-77
2023/10/30 06:27:11;;;;;;;1.20;1.10;;;14.50;99.90;;;;;;9963677;28;20059;-77
2023/10/30 06:32:02;;;;;;;0.98;0.80;;;14.50;99.90;;;;;;9959456;28;20507;-77
2023/10/30 06:36:53;;;;;;;2.13;0.50;;;14.60;99.90;;;;;;9971147;28;20026;-77
2023/10/30 06:41:44;;;;;;;0.95;0.77;;;14.50;99.90;;;;;;9978993;28;20042;-77
2023/10/30 06:46:34;;;;;;;1.05;0.60;;;14.60;99.90;;;;;;9965666;28;20034;-78
2023/10/30 06:51:25;;;;;;;1.10;0.60;;;14.60;99.90;;;;;;9965127;28;20049;-77
2023/10/30 06:56:15;;;;;;;1.02;0.70;;;14.50;99.90;;;;;;9966215;28;20034;-77
2023/10/30 07:01:06;;;;;;;2.38;1.08;;;14.50;99.90;;;;;;9956424;28;20109;-77
2023/10/30 07:05:57;;;;;;;1.60;0.73;;;14.60;99.90;;;;;;9972452;28;20492;-77
2023/10/30 07:10:47;;;;;;;3.20;0.95;;;14.60;99.90;;;;;;9955111;28;20022;-76
2023/10/30 07:15:38;;;;;;;1.88;0.77;;;14.60;99.90;;;;;;9966068;28;20022;-77
2023/10/30 07:20:29;;;;;;;2.67;1.15;;;14.60;99.90;;;;;;9972657;28;20022;-75
2023/10/30 07:25:20;;;;;;;2.30;1.13;;;14.70;99.90;;;;;;9961042;28;20043;-77
2023/10/30 07:30:11;;;;;;;4.45;1.58;;;14.80;99.90;;;;;;9955613;28;20502;-78
2023/10/30 07:35:01;;;;;;;1.90;1.33;;;14.70;99.90;;;;;;9973542;28;20026;-76
2023/10/30 07:39:52;;;;;;;1.33;1.02;;;14.70;99.90;;;;;;9972059;28;20022;-73
2023/10/30 07:44:43;;;;;;;1.38;0.93;;;14.60;99.90;;;;;;9972684;28;20547;-74
2023/10/30 07:49:34;;;;;;;1.13;0.73;;;14.60;99.90;;;;;;9976590;28;20057;-74
2023/10/30 07:54:25;;;;;;;2.63;0.85;;;14.60;99.90;;;;;;9977681;28;20109;-75
2023/10/30 07:59:15;;;;;;;1.45;0.90;;;14.50;99.90;;;;;;9979024;28;20034;-75
2023/10/30 08:04:06;;;;;;;1.80;0.90;;;14.60;99.90;;;;;;9979490;28;20038;-75
2023/10/30 08:08:57;;;;;;;2.10;0.77;;;14.70;99.90;;;;;;9971709;28;20023;-73
2023/10/30 08:13:48;;;;;;;3.10;0.95;;;14.80;99.90;;;;;;9967686;28;20033;-75
2023/10/30 08:18:39;;;;;;;3.38;0.98;;;14.80;99.90;;;;;;9975642;28;20037;-75
2023/10/30 08:23:30;;;;;;;1.23;0.65;;;14.80;99.90;;;;;;9954982;28;20423;-74
2023/10/30 08:28:21;;;;;;;1.33;0.90;;;14.90;99.90;;;;;;9963891;28;20045;-76
2023/10/30 08:33:11;;;;;;;0.65;0.47;;;15.00;99.90;;;;;;9968639;28;20500;-73
2023/10/30 08:38:04;;;;;;;2.80;0.80;;;15.10;99.90;;;;;;9973018;28;20468;-74
2023/10/30 08:42:54;;;;;;;1.13;0.52;;;15.20;99.90;;;;;;9967939;28;20061;-72
2023/10/30 08:47:45;;;;;;;2.58;1.30;;;15.20;99.90;;;;;;9970765;28;20026;-74
2023/10/30 08:52:36;;;;;;;2.30;1.05;;;15.30;99.90;;;;;;9962617;28;20523;-76
2023/10/30 08:57:27;;;;;;;0.93;0.80;;;15.20;99.90;;;;;;9958404;28;20040;-76
2023/10/30 09:02:17;;;;;;;3.80;0.80;;;15.10;99.90;;;;;;9953868;28;20378;-76
2023/10/30 09:07:08;;;;;;;1.67;0.35;;;15.20;99.90;;;;;;9965288;28;20579;-77
2023/10/30 09:11:59;;;;;;;2.42;0.40;;;15.10;99.90;;;;;;9947830;28;20025;-74
2023/10/30 09:16:50;;;;;;;1.08;0.52;;;15.30;99.90;;;;;;9973759;28;20037;-74
2023/10/30 09:21:41;;;;;;;1.15;0.50;;;15.40;99.90;;;;;;9952864;28;20026;-74
2023/10/30 09:26:32;;;;;;;0.93;0.50;;;15.50;99.90;;;;;;9951768;28;20103;-74
2023/10/30 09:31:22;;;;;;;1.88;0.38;;;15.50;99.90;;;;;;9955395;28;20489;-72
2023/10/30 09:36:13;;;;;;;1.27;0.57;;;15.40;99.90;;;;;;9961880;28;20030;-73
2023/10/30 09:41:05;;;;;;;1.23;0.80;;;15.40;99.90;;;;;;9973709;28;20092;-74
2023/10/30 09:45:58;;;;;;;7.55;0.75;;;15.50;99.90;;;;;;9966986;28;20710;-73
2023/10/30 09:50:51;;;;;;;1.02;0.75;;;15.50;99.90;;;;;;9960746;28;20043;-73
2023/10/30 09:55:43;;;;;;;0.85;0.60;;;15.60;99.90;;;;;;9963457;28;20026;-72
2023/10/30 10:00:34;;;;;;;0.55;0.40;;;15.60;99.90;;;;;;9967982;28;20065;-72
2023/10/30 10:05:24;;;;;;;1.10;0.68;;;15.70;99.90;;;;;;9978995;28;20516;-74
2023/10/30 10:10:18;;;;;;;1.13;0.57;;;15.80;99.90;;;;;;9975118;28;20133;-73
2023/10/30 10:15:09;;;;;;;0.70;0.40;;;15.70;99.90;;;;;;9974576;28;20643;-74
2023/10/30 10:20:07;;;;;;;1.90;0.60;;;15.70;99.90;;;;;;9978553;28;20113;-73
2023/10/30 10:24:59;;;;;;;0.80;0.47;;;15.70;99.90;;;;;;9976272;28;20026;-73
2023/10/30 10:29:55;;;;;;;1.35;0.43;;;15.70;99.90;;;;;;9978782;28;20440;-73
2023/10/30 10:34:50;;;;;;;0.60;0.40;;;15.70;99.90;;;;;;9971387;28;20022;-72
2023/10/30 10:39:51;;;;;;;0.60;0.57;;;15.70;99.90;;;;;;9976838;28;20106;-73
2023/10/30 10:44:44;;;;;;;1.25;0.40;;;15.70;99.90;;;;;;9977757;28;20035;-73
2023/10/30 10:49:34;;;;;;;1.50;0.50;;;15.60;99.90;;;;;;9973137;28;20451;-72
2023/10/30 10:54:32;;;;;;;2.38;0.75;;;15.80;99.90;;;;;;9974363;28;20039;-72
2023/10/30 10:59:29;;;;;;;1.77;1.13;;;15.80;99.90;;;;;;9960961;28;20113;-74
2023/10/30 11:04:20;;;;;;;1.67;0.90;;;15.90;99.90;;;;;;9968552;28;20571;-74
2023/10/30 11:09:28;;;;;;;2.22;2.03;;;15.90;99.90;;;;;;9973736;28;20065;-74
2023/10/30 11:14:35;;;;;;;1.67;0.75;;;15.90;99.90;;;;;;9976999;28;20038;-74
2023/10/30 11:19:28;;;;;;;1.95;0.65;;;15.90;99.90;;;;;;9978317;28;20498;-75
2023/10/30 11:24:37;;;;;;;2.45;0.50;;;15.90;99.90;;;;;;9971509;28;20362;-76
2023/10/30 11:29:54;;;;;;;0.55;0.47;;;15.90;99.90;;;;;;9964751;28;20497;-76
2023/10/30 11:34:45;;;;;;;1.20;0.80;;;16.00;99.90;;;;;;9977064;28;20061;-77
2023/10/30 11:39:38;;;;;;;2.67;0.80;;;16.00;99.90;;;;;;9977754;28;20035;-77
2023/10/30 11:44:30;;;;;;;2.85;0.75;;;15.90;99.90;;;;;;9977737;28;20570;-75
2023/10/30 11:49:22;;;;;;;1.95;0.75;;;16.00;99.90;;;;;;9975735;28;20250;-76
2023/10/30 11:54:21;;;;;;;1.45;0.73;;;15.90;99.90;;;;;;9964616;28;20047;-74
2023/10/30 11:59:12;;;;;;;0.55;0.55;;;15.90;99.90;;;;;;9974854;28;20046;-75
2023/10/30 12:04:03;;;;;;;4.18;1.40;;;15.90;99.90;;;;;;9961861;28;20077;-76
2023/10/30 12:08:53;;;;;;;3.00;0.60;;;15.90;99.90;;;;;;9960114;28;20027;-79
2023/10/30 12:13:46;;;;;;;3.03;0.60;;;15.90;99.90;;;;;;9965862;28;20569;-78
2023/10/30 12:18:37;;;;;;;2.20;0.90;;;15.90;99.90;;;;;;9975532;28;20152;-78
2023/10/30 12:23:29;;;;;;;1.88;0.90;;;15.90;99.90;;;;;;9975845;28;20066;-78
2023/10/30 12:28:20;;;;;;;2.10;1.00;;;16.00;99.90;;;;;;9974765;28;20027;-78
2023/10/30 12:33:13;;;;;;;1.60;1.05;;;16.00;99.90;;;;;;9979234;28;20034;-77
2023/10/30 12:38:13;;;;;;;1.20;0.68;;;16.00;99.90;;;;;;9976223;28;20541;-78
2023/10/30 12:43:03;;;;;;;1.30;0.95;;;16.00;99.90;;;;;;9981101;28;20030;-78
2023/10/30 12:47:56;;;;;;;1.38;0.75;;;16.10;99.90;;;;;;9961190;28;20053;-79
2023/10/30 12:52:47;;;;;;;2.17;0.90;;;16.20;99.90;;;;;;9959988;28;20057;-77
2023/10/30 12:57:38;;;;;;;1.20;0.77;;;16.20;99.90;;;;;;9970595;28;20520;-75
2023/10/30 13:02:29;;;;;;;2.10;1.15;;;16.20;99.90;;;;;;9958035;28;20045;-77
2023/10/30 13:07:20;;;;;;;1.90;0.98;;;16.30;99.90;;;;;;9966869;28;20077;-77
2023/10/30 13:12:10;;;;;;;2.42;1.30;;;16.30;99.90;;;;;;9971865;28;20038;-77
2023/10/30 13:17:01;;;;;;;2.35;1.10;;;16.20;99.90;;;;;;9976332;28;20030;-76
2023/10/30 13:21:52;;;;;;;2.30;1.30;;;16.20;99.90;;;;;;9952653;28;20041;-76
2023/10/30 13:26:43;;;;;;;1.70;1.35;;;16.20;99.90;;;;;;9963884;28;20061;-76
2023/10/30 13:31:36;;;;;;;1.55;0.68;;;16.30;99.90;;;;;;9957142;28;20026;-77
2023/10/30 13:36:27;;;;;;;2.20;1.08;;;16.20;99.90;;;;;;9967145;28;20499;-78
2023/10/30 13:41:18;;;;;;;2.30;0.77;;;16.20;99.90;;;;;;9968974;28;20029;-76
2023/10/30 13:46:09;;;;;;;6.45;1.50;;;16.20;99.90;;;;;;9967939;28;20409;-75
2023/10/30 13:50:59;;;;;;;2.53;1.65;;;16.30;99.90;;;;;;9969056;28;20357;-75
2023/10/30 13:55:50;;;;;;;2.05;1.38;;;16.30;99.90;;;;;;9964685;28;20026;-82
2023/10/30 14:00:41;;;;;;;3.47;1.30;;;16.20;99.90;;;;;;9976765;28;20027;-78
2023/10/30 14:05:32;;;;;;;2.60;1.63;;;16.30;99.90;;;;;;9982403;28;20034;-77
2023/10/30 14:10:23;;;;;;;2.42;1.38;;;16.20;99.90;;;;;;9979882;28;20488;-76
2023/10/30 14:15:14;;;;;;;3.53;1.52;;;16.20;99.90;;;;;;9978206;28;20026;-77
2023/10/30 14:20:05;;;;;;;2.28;1.25;;;16.30;99.90;;;;;;9967084;28;20427;-80
2023/10/30 14:24:57;;;;;;;1.60;1.30;;;16.20;99.90;;;;;;9964279;28;20031;-76
2023/10/30 14:29:47;;;;;;;4.78;1.45;;;16.20;99.90;;;;;;9966455;28;20073;-75
2023/10/30 14:34:38;;;;;;;2.30;1.70;;;16.10;99.90;;;;;;9980700;28;20026;-77
2023/10/30 14:39:29;;;;;;;2.55;1.70;;;16.10;99.90;;;;;;9977307;28;20206;-78
2023/10/30 14:44:19;;;;;;;2.55;1.38;;;16.10;99.90;;;;;;9967593;28;20439;-76
2023/10/30 14:49:10;;;;;;;3.72;1.33;;;16.10;99.90;;;;;;9985491;28;20048;-77
2023/10/30 14:54:03;;;;;;;3.95;1.75;;;16.10;99.90;;;;;;9962001;28;20110;-79
2023/10/30 14:58:54;;;;;;;3.47;1.10;;;16.20;99.90;;;;;;9974343;28;20031;-80
2023/10/30 15:03:44;;;;;;;3.80;1.67;;;16.10;99.90;;;;;;9974849;28;20038;-77
2023/10/30 15:08:35;;;;;;;3.33;1.25;;;16.00;99.90;;;;;;9973745;28;20077;-77
2023/10/30 15:13:26;;;;;;;4.28;1.50;;;15.80;99.90;;;;;;9978287;28;20026;-78
2023/10/30 15:18:17;;;;;;;2.42;1.50;;;15.90;99.90;;;;;;9976168;28;20072;-76
2023/10/30 15:23:07;;;;;;;1.73;1.00;;;15.80;99.90;;;;;;9976627;28;20125;-76
2023/10/30 15:27:58;;;;;;;1.75;1.00;;;15.70;99.90;;;;;;9979054;28;20030;-77
2023/10/30 15:32:49;;;;;;;4.90;1.38;;;15.80;99.90;;;;;;9968798;28;20030;-76
2023/10/30 15:37:40;;;;;;;5.15;1.58;;;15.90;99.90;;;;;;9980343;28;20134;-75
2023/10/30 15:42:31;;;;;;;2.40;1.30;;;15.90;99.90;;;;;;9981009;28;20018;-77
2023/10/30 15:47:22;;;;;;;6.35;1.88;;;15.90;99.90;;;;;;9983074;28;20049;-75
2023/10/30 15:52:13;;;;;;;4.05;1.20;;;15.90;99.90;;;;;;9972500;28;20464;-74
2023/10/30 15:57:05;;;;;;;2.40;1.83;;;15.90;99.90;;;;;;9967150;28;20048;-79
2023/10/30 16:01:56;;;;;;;2.50;1.30;;;16.00;99.90;;;;;;9957453;28;20034;-77
2023/10/30 16:06:46;;;;;;;4.22;1.38;;;15.80;99.90;;;;;;9985012;28;20065;-81
2023/10/30 16:11:37;;;;;;;2.00;1.35;;;15.80;99.90;;;;;;9971581;28;20031;-76
2023/10/30 16:16:28;;;;;;;2.10;1.55;;;15.70;99.90;;;;;;9977547;28;20038;-77
2023/10/30 16:21:21;;;;;;;4.75;2.38;;;15.70;99.90;;;;;;9966297;28;20041;-78
2023/10/30 16:26:12;;;;;;;3.55;2.15;;;15.80;99.90;;;;;;9972496;28;20042;-80
2023/10/30 16:31:03;;;;;;;4.38;2.20;;;15.70;99.90;;;;;;9975056;28;20038;-76
2023/10/30 16:35:54;;;;;;;3.72;1.88;;;15.70;99.90;;;;;;9969034;28;20619;-76
2023/10/30 16:40:45;;;;;;;3.75;2.00;;;15.80;99.90;;;;;;9975788;28;20061;-78
2023/10/30 16:45:38;;;;;;;7.60;2.28;;;15.90;99.90;;;;;;9975377;28;20038;-79
2023/10/30 16:50:30;;;;;;;4.80;2.00;;;16.00;99.90;;;;;;9967307;28;20045;-79
2023/10/30 16:55:21;;;;;;;5.00;2.05;;;16.00;99.90;;;;;;9970911;28;20038;-79
2023/10/30 17:00:12;;;;;;;9.80;6.55;;;16.00;99.90;;;;;;9956075;28;20038;-79
2023/10/30 17:05:03;;;;;;;5.45;4.13;;;16.00;99.90;;;;;;9969786;28;20064;-79
2023/10/30 17:09:54;;;;;;;5.35;3.13;;;16.00;99.90;;;;;;9960466;28;20421;-78
2023/10/30 17:14:47;;;;;;;3.38;2.30;;;16.00;99.90;;;;;;9965508;28;20030;-79
2023/10/30 17:19:38;;;;;;;4.90;2.63;;;15.80;99.90;;;;;;9962413;28;20033;-79
2023/10/30 17:24:29;;;;;;;3.83;2.22;;;15.90;99.90;;;;;;9962584;28;20062;-78
2023/10/30 17:29:19;;;;;;;4.32;2.85;;;15.90;99.90;;;;;;9973409;28;20030;-81
2023/10/30 17:34:10;;;;;;;4.28;2.78;;;15.90;99.90;;;;;;9968512;28;20053;-79
2023/10/30 17:39:01;;;;;;;4.07;2.92;;;15.80;99.90;;;;;;9976836;28;20058;-79
2023/10/30 17:43:52;;;;;;;4.80;2.80;;;15.80;99.90;;;;;;9977154;28;20035;-79
2023/10/30 17:48:43;;;;;;;4.90;2.88;;;15.80;99.90;;;;;;9975491;28;20792;-78
2023/10/30 17:53:34;;;;;;;6.47;2.83;;;15.80;99.90;;;;;;9976861;28;20043;-75
2023/10/30 17:58:25;;;;;;;7.60;2.92;;;15.80;99.90;;;;;;9974049;28;20077;-77
2023/10/30 18:03:15;;;;;;;4.40;1.98;;;15.80;99.90;;;;;;9976372;28;20068;-76
2023/10/30 18:08:06;;;;;;;4.93;1.80;;;15.80;99.90;;;;;;9964547;28;20484;-80
2023/10/30 18:12:57;;;;;;;2.38;1.95;;;15.70;99.90;;;;;;9959734;28;20102;-78
2023/10/30 18:17:50;;;;;;;3.33;1.75;;;15.70;99.90;;;;;;9955511;28;20058;-80
2023/10/30 18:22:41;;;;;;;3.20;1.77;;;15.60;99.90;;;;;;9967713;28;20065;-77
2023/10/30 18:27:32;;;;;;;2.60;1.48;;;15.60;99.90;;;;;;9971574;28;20050;-77
2023/10/30 18:32:23;;;;;;;3.35;1.23;;;15.60;99.90;;;;;;9962871;28;20485;-78
2023/10/30 18:37:14;;;;;;;2.25;1.42;;;15.60;99.90;;;;;;9982208;28;20113;-78
2023/10/30 18:42:05;;;;;;;2.92;1.30;;;15.60;99.90;;;;;;9972589;28;20483;-81
2023/10/30 18:46:56;;;;;;;3.03;1.35;;;15.50;99.90;;;;;;9963532;28;20038;-79
2023/10/30 18:51:47;;;;;;;3.58;1.45;;;15.50;99.90;;;;;;9966335;28;20053;-81
2023/10/30 18:56:37;;;;;;;2.28;1.73;;;15.40;99.90;;;;;;9976976;28;20026;-80
2023/10/30 19:01:28;;;;;;;2.35;1.63;;;15.40;99.90;;;;;;9982190;28;20073;-80
2023/10/30 19:06:20;;;;;;;2.15;1.58;;;15.40;99.90;;;;;;9988574;28;20095;-80
2023/10/30 19:11:10;;;;;;;4.57;2.05;;;15.40;99.90;;;;;;9982010;28;20121;-81
2023/10/30 19:16:01;;;;;;;4.53;2.05;;;15.50;99.90;;;;;;9969532;28;20545;-80
2023/10/30 19:20:54;;;;;;;3.88;1.83;;;15.50;99.90;;;;;;9966610;28;20034;-81
2023/10/30 19:25:44;;;;;;;2.63;1.60;;;15.40;99.90;;;;;;9982865;28;20392;-81
2023/10/30 19:30:35;;;;;;;1.60;0.93;;;15.40;99.90;;;;;;9971551;28;20046;-82
2023/10/30 19:35:26;;;;;;;1.40;1.20;;;15.40;99.90;;;;;;9976241;28;20575;-81
2023/10/30 19:40:17;;;;;;;1.88;1.05;;;15.40;99.90;;;;;;9974054;28;20043;-77
2023/10/30 19:45:10;;;;;;;6.28;1.45;;;15.40;99.90;;;;;;9956910;28;20043;-84
2023/10/30 19:50:01;;;;;;;2.80;1.48;;;15.30;99.90;;;;;;9958803;28;20065;-82
2023/10/30 19:54:53;;;;;;;1.92;1.20;;;15.40;99.90;;;;;;9982299;28;20530;-81
2023/10/30 19:59:43;;;;;;;2.35;0.93;;;15.40;99.90;;;;;;9975274;28;20050;-81
2023/10/30 20:04:34;;;;;;;2.05;1.30;;;15.40;99.90;;;;;;9976168;28;20056;-81
2023/10/30 20:09:25;;;;;;;5.35;3.60;;;15.40;99.90;;;;;;9979256;28;20036;-82
2023/10/30 20:14:15;;;;;;;1.67;1.20;;;15.40;99.90;;;;;;9971069;28;20042;-79
2023/10/30 20:19:08;;;;;;;2.15;1.05;;;15.30;99.90;;;;;;9968307;28;20627;-80
2023/10/30 20:23:58;;;;;;;1.38;0.85;;;15.30;99.90;;;;;;9974521;28;20042;-80
2023/10/30 20:28:49;;;;;;;2.80;1.30;;;15.20;99.90;;;;;;9969904;28;20465;-80
2023/10/30 20:33:40;;;;;;;1.85;1.17;;;15.30;99.90;;;;;;9977721;28;20037;-78
2023/10/30 20:38:31;;;;;;;4.20;1.10;;;15.30;99.90;;;;;;9979326;28;20544;-78
2023/10/30 20:43:23;;;;;;;2.13;1.13;;;15.30;99.90;;;;;;9978867;28;20102;-80
2023/10/30 20:48:14;;;;;;;1.58;1.08;;;15.20;99.90;;;;;;9977864;28;20038;-78
2023/10/30 20:53:05;;;;;;;1.48;1.10;;;15.20;99.90;;;;;;9979312;28;20143;-78
2023/10/30 20:57:55;;;;;;;1.83;1.30;;;15.20;99.90;;;;;;9973336;28;20026;-77
2023/10/30 21:02:46;;;;;;;2.72;1.10;;;15.20;99.90;;;;;;9955390;28;20030;-80
2023/10/30 21:07:38;;;;;;;2.38;1.40;;;15.20;99.90;;;;;;9972047;28;20042;-80
2023/10/30 21:12:28;;;;;;;1.55;1.05;;;15.20;99.90;;;;;;9960439;28;20023;-79
2023/10/30 21:17:19;;;;;;;1.45;0.93;;;15.20;99.90;;;;;;9960843;28;20034;-81
2023/10/30 21:22:10;;;;;;;2.15;0.98;;;15.10;99.90;;;;;;9955845;28;20583;-77
2023/10/30 21:27:00;;;;;;;2.00;1.08;;;15.20;99.90;;;;;;9974234;28;20054;-80
2023/10/30 21:31:51;;;;;;;2.75;1.00;;;15.10;99.90;;;;;;9961283;28;20023;-80
2023/10/30 21:36:42;;;;;;;2.88;1.15;;;15.00;99.90;;;;;;9974122;28;20037;-79
2023/10/30 21:41:33;;;;;;;0.95;0.85;;;15.00;99.90;;;;;;9977236;28;20546;-78
2023/10/30 21:46:24;;;;;;;2.90;0.98;;;14.90;99.90;;;;;;9974257;28;20047;-77
2023/10/30 21:51:17;;;;;;;0.90;0.57;;;15.00;99.90;;;;;;9955034;28;20046;-78
2023/10/30 21:56:08;;;;;;;1.15;0.80;;;15.00;99.90;;;;;;9973935;28;20030;-78
2023/10/30 22:00:59;;;;;;;1.30;0.93;;;15.00;99.90;;;;;;9971426;28;20385;-78
2023/10/30 22:05:49;;;;;;;0.82;0.77;;;15.00;99.90;;;;;;9971050;28;20042;-78
2023/10/30 22:10:40;;;;;;;3.72;1.10;;;14.90;99.90;;;;;;9966883;28;20065;-78
2023/10/30 22:15:31;;;;;;;1.02;0.80;;;14.90;99.90;;;;;;9963986;28;20034;-77
2023/10/30 22:20:22;;;;;;;2.08;0.98;;;14.90;99.90;;;;;;9970231;28;20037;-77
2023/10/30 22:25:13;;;;;;;1.88;0.88;;;14.80;99.90;;;;;;9981521;28;20042;-79
2023/10/30 22:30:06;;;;;;;1.33;0.88;;;14.90;99.90;;;;;;9971856;28;20336;-78
2023/10/30 22:34:56;;;;;;;2.45;0.90;;;15.00;99.90;;;;;;9973907;28;20065;-77
2023/10/30 22:39:47;;;;;;;0.68;0.50;;;15.00;99.90;;;;;;9984144;28;20026;-76
2023/10/30 22:44:38;;;;;;;0.73;0.52;;;14.80;99.90;;;;;;9968722;28;20042;-77
2023/10/30 22:49:29;;;;;;;1.63;0.38;;;14.70;99.90;;;;;;9955444;28;20047;-78
2023/10/30 22:54:19;;;;;;;0.88;0.40;;;14.70;99.90;;;;;;9979472;28;20038;-78
2023/10/30 22:59:10;;;;;;;0.55;0.30;;;14.70;99.90;;;;;;9979891;28;20033;-77
2023/10/30 23:04:01;;;;;;;0.43;0.30;;;14.70;99.90;;;;;;9977500;28;20046;-76
2023/10/30 23:08:51;;;;;;;1.17;0.30;;;14.50;99.90;;;;;;9973439;28;20031;-76
2023/10/30 23:13:42;;;;;;;1.02;0.93;;;14.60;99.90;;;;;;9972138;28;20101;-77
2023/10/30 23:18:35;;;;;;;0.80;0.28;;;14.60;99.90;;;;;;9971071;28;20042;-77
2023/10/30 23:23:25;;;;;;;0.40;0.20;;;14.50;99.90;;;;;;9978420;28;20058;-77
2023/10/30 23:28:16;;;;;;;0.60;0.40;;;14.50;99.90;;;;;;9979234;28;20035;-78
2023/10/30 23:33:07;;;;;;;0.40;0.20;;;14.60;99.90;;;;;;9969535;28;20029;-77
2023/10/30 23:37:58;;;;;;;0.47;0.28;;;14.60;99.90;;;;;;9982092;28;20022;-77
2023/10/30 23:42:49;;;;;;;1.02;0.32;;;14.50;99.90;;;;;;9979975;28;20030;-77
2023/10/30 23:47:39;;;;;;;0.98;0.30;;;14.30;99.90;;;;;;9981877;28;20496;-76
2023/10/30 23:52:30;;;;;;;0.50;0.30;;;14.50;99.90;;;;;;9989547;28;20042;-77
2023/10/30 23:57:21;;;;;;;0.32;0.20;;;14.50;99.90;;;;;;9981544;28;20030;-78
